Time;durP1;ratioP1;P1;durP2;ratioP2;P2;SDS_P1;SDS_P2;PMS_P1;PMS_P2;Temp;Humidity;BMP_temperature;BMP_pressure;BME280_temperature;BME280_humidity;BME280_pressure;Samples;Min_cycle;Max_cycle;Signal;HPM_P1;HPM_P2
2023/01/13 05:33:04;;;;;;;;;3.00;0.00;;;;;10.55;70.08;100879.59;4994642;28;45394;-77
2023/01/13 05:35:30;;;;;;;;;0.00;0.00;;;;;10.36;70.13;100866.16;4976889;28;46614;-76
2023/01/13 05:37:55;;;;;;;;;1.00;0.50;;;;;10.50;70.51;100884.28;4986187;28;48303;-74
2023/01/13 05:43:18;;;;;;;;;2.00;0.00;;;;;10.53;70.34;100885.06;4995146;28;45508;-76
2023/01/13 05:45:45;;;;;;;;;0.00;0.00;;;;;10.51;70.24;100889.59;4983157;28;45420;-76
2023/01/13 05:48:11;;;;;;;;;0.75;0.75;;;;;10.57;70.21;100883.97;4993773;28;45513;-76
2023/01/13 05:50:37;;;;;;;;;1.25;0.00;;;;;10.56;69.96;100905.47;4994598;28;45350;-76
2023/01/13 05:53:02;;;;;;;;;0.50;0.50;;;;;10.44;70.02;100884.56;4994793;28;45379;-76
2023/01/13 05:55:28;;;;;;;;;1.00;0.00;;;;;10.39;69.62;100891.91;4994964;28;45318;-76
2023/01/13 05:57:53;;;;;;;;;0.00;0.00;;;;;10.40;69.96;100910.63;4994565;28;45501;-75
2023/01/13 06:00:19;;;;;;;;;0.00;0.00;;;;;10.38;69.57;100890.22;4994718;28;45375;-78
2023/01/13 06:02:44;;;;;;;;;1.50;0.50;;;;;10.50;69.82;100916.47;4993403;28;45355;-79
2023/01/13 06:05:09;;;;;;;;;0.75;0.75;;;;;10.40;69.52;100897.22;4994636;28;45262;-77
2023/01/13 06:07:35;;;;;;;;;0.00;0.00;;;;;10.29;69.27;100867.34;4994398;28;45369;-77
2023/01/13 06:10:00;;;;;;;;;0.00;0.00;;;;;10.46;69.09;100906.81;4994637;28;45235;-81
2023/01/13 06:12:25;;;;;;;;;1.00;0.00;;;;;10.48;69.41;100921.00;5009426;28;45380;-76
2023/01/13 06:14:51;;;;;;;;;0.25;0.00;;;;;10.46;69.09;100914.88;5014701;28;45472;-75
2023/01/13 06:17:16;;;;;;;;;3.00;0.00;;;;;10.45;69.04;100923.84;5013948;28;45444;-75
2023/01/13 06:19:41;;;;;;;;;2.00;1.00;;;;;10.35;69.08;100922.47;5014174;28;45385;-76
2023/01/13 06:22:18;;;;;;;;;0.00;0.00;;;;;10.41;69.31;100944.53;5014459;28;45366;-79
2023/01/13 06:24:49;;;;;;;;;1.25;1.00;;;;;10.38;69.73;100941.97;5003438;28;45480;-73
2023/01/13 06:27:17;;;;;;;;;1.00;0.00;;;;;10.37;69.23;100947.41;4976335;28;47752;-75
2023/01/13 06:29:42;;;;;;;;;0.00;0.00;;;;;10.31;68.92;100948.53;4993426;28;45306;-77
2023/01/13 06:32:15;;;;;;;;;1.00;1.00;;;;;10.26;69.32;100955.03;4990222;28;45620;-85
2023/01/13 06:34:45;;;;;;;;;2.00;0.00;;;;;10.11;69.09;100938.63;5015037;28;45555;-81
2023/01/13 06:37:12;;;;;;;;;1.00;0.00;;;;;10.27;69.44;100971.03;5015624;28;45560;-81
2023/01/13 06:39:39;;;;;;;;;0.25;0.25;;;;;10.10;69.31;100947.59;5019494;28;45403;-82
2023/01/13 06:44:49;;;;;;;;;2.00;0.25;;;;;10.22;69.13;100970.34;5017830;28;45332;-78
2023/01/13 06:47:15;;;;;;;;;1.00;1.00;;;;;10.14;69.18;100957.22;5014812;28;45492;-73
2023/01/13 06:49:40;;;;;;;;;0.75;0.75;;;;;10.26;69.61;100979.13;5014046;28;45317;-74
2023/01/13 06:52:05;;;;;;;;;3.00;1.00;;;;;10.23;69.33;100983.69;5013991;28;45382;-75
2023/01/13 06:54:31;;;;;;;;;3.00;1.00;;;;;10.11;68.98;100962.72;5013607;28;45251;-78
2023/01/13 06:56:56;;;;;;;;;3.00;0.50;;;;;10.20;68.90;100983.81;5013855;28;46138;-76
2023/01/13 06:59:22;;;;;;;;;2.00;1.00;;;;;10.21;68.55;100990.91;5015430;28;45308;-75
2023/01/13 07:01:47;;;;;;;;;1.50;1.50;;;;;10.12;68.28;100991.22;5017172;28;45216;-76
2023/01/13 07:04:12;;;;;;;;;2.00;0.00;;;;;10.01;68.50;100988.13;5016909;28;45512;-75
2023/01/13 07:06:38;;;;;;;;;0.00;0.00;;;;;10.08;68.83;100989.63;5016754;28;45304;-73
2023/01/13 07:09:03;;;;;;;;;2.00;0.75;;;;;10.12;68.09;100993.91;5017029;28;45313;-73
2023/01/13 07:11:28;;;;;;;;;2.00;1.00;;;;;10.05;68.43;100983.50;4999170;28;45411;-75
2023/01/13 07:16:38;;;;;;;;;0.00;0.00;;;;;10.01;68.89;100992.63;5016759;28;45691;-75
2023/01/13 07:19:03;;;;;;;;;2.50;0.50;;;;;10.09;68.97;101028.88;5016466;28;45379;-75
2023/01/13 07:21:28;;;;;;;;;2.00;0.00;;;;;10.07;69.41;101024.50;5016827;28;45487;-78
2023/01/13 07:23:54;;;;;;;;;0.00;0.00;;;;;9.99;69.61;101016.78;5016566;28;45301;-75
2023/01/13 07:26:19;;;;;;;;;1.00;0.00;;;;;10.10;69.47;101033.31;5016545;28;46002;-75
2023/01/13 07:28:44;;;;;;;;;0.00;0.00;;;;;10.09;69.80;101031.56;5016489;28;45417;-75
2023/01/13 07:31:16;;;;;;;;;1.75;0.00;;;;;9.97;69.87;101031.16;5017089;28;47054;-76
2023/01/13 07:33:41;;;;;;;;;0.75;0.00;;;;;9.99;70.33;101034.66;5016296;28;45576;-72
2023/01/13 07:36:07;;;;;;;;;0.00;0.00;;;;;9.92;70.53;101031.34;5016678;28;45377;-73
2023/01/13 07:38:33;;;;;;;;;1.00;1.00;;;;;9.86;70.32;101043.16;5010875;28;45459;-75
2023/01/13 07:43:30;;;;;;;;;2.25;1.00;;;;;9.80;71.20;101040.69;5014440;28;45314;-73
2023/01/13 07:43:49;;;;;;;;;1.50;1.50;;;;;9.81;70.94;101058.53;5010605;28;45515;-74
2023/01/13 07:46:14;;;;;;;;;0.00;0.00;;;;;9.80;71.29;101061.25;5013733;28;46037;-72
2023/01/13 07:48:40;;;;;;;;;0.50;0.50;;;;;9.64;71.10;101015.44;5002033;28;45455;-74
2023/01/13 07:51:08;;;;;;;;;3.00;1.00;;;;;9.92;70.92;101052.75;5016530;28;45358;-73
2023/01/13 07:53:34;;;;;;;;;0.25;0.00;;;;;9.89;71.40;101052.88;5013972;28;45360;-74
2023/01/13 07:56:01;;;;;;;;;1.00;1.00;;;;;9.88;71.37;101067.19;5015691;28;45537;-73
2023/01/13 07:58:27;;;;;;;;;4.00;0.00;;;;;9.90;71.21;101064.47;5011855;28;45403;-77
2023/01/13 08:00:54;;;;;;;;;2.25;1.00;;;;;9.75;71.84;101071.28;5004962;28;45511;-75
2023/01/13 08:03:20;;;;;;;;;3.75;1.00;;;;;9.71;71.88;101078.53;5016101;28;45442;-77
2023/01/13 08:05:46;;;;;;;;;3.25;1.00;;;;;9.68;72.15;101088.50;5015045;28;46089;-74
2023/01/13 08:08:11;;;;;;;;;2.00;0.75;;;;;9.74;72.01;101085.59;5006051;28;45479;-72
2023/01/13 08:10:38;;;;;;;;;1.75;1.75;;;;;9.79;71.94;101096.97;5016607;28;45519;-73
2023/01/13 08:13:21;;;;;;;;;2.50;1.00;;;;;9.75;72.25;101092.69;5014834;28;45344;-74
2023/01/13 08:15:52;;;;;;;;;1.00;1.00;;;;;9.71;72.24;101086.56;5010905;28;46393;-73
2023/01/13 08:18:21;;;;;;;;;0.50;0.50;;;;;9.70;72.37;101103.53;5015263;28;45431;-72
2023/01/13 08:20:47;;;;;;;;;1.75;1.00;;;;;9.63;72.55;101096.69;5015225;28;45405;-73
2023/01/13 08:23:13;;;;;;;;;1.00;1.00;;;;;9.62;72.97;101097.59;5015707;28;45344;-73
2023/01/13 08:25:39;;;;;;;;;0.75;0.00;;;;;9.67;72.59;101108.16;5014000;28;46818;-74
2023/01/13 08:28:05;;;;;;;;;2.25;1.00;;;;;9.67;72.82;101106.34;5015959;28;45193;-74
2023/01/13 08:30:30;;;;;;;;;4.00;1.00;;;;;9.70;72.40;101118.75;5015554;28;45421;-75
2023/01/13 08:32:56;;;;;;;;;5.00;1.25;;;;;9.80;72.45;101122.84;5017116;28;45502;-71
2023/01/13 08:35:22;;;;;;;;;2.00;0.00;;;;;9.65;72.62;101099.31;4997535;28;45408;-72
2023/01/13 08:37:49;;;;;;;;;0.00;0.00;;;;;9.83;72.47;101118.25;5015809;28;45345;-71
2023/01/13 08:40:15;;;;;;;;;0.75;0.75;;;;;9.83;72.17;101120.06;4997814;28;45420;-71
2023/01/13 08:42:40;;;;;;;;;1.25;1.00;;;;;9.73;72.67;101116.84;5015535;28;45489;-72
2023/01/13 08:45:07;;;;;;;;;2.00;1.00;;;;;9.82;72.62;101127.22;5009061;28;47526;-74
2023/01/13 08:47:33;;;;;;;;;2.00;0.00;;;;;9.80;72.81;101130.88;5015760;28;45392;-74
2023/01/13 08:49:58;;;;;;;;;3.50;1.50;;;;;9.79;72.15;101130.00;5015174;28;46021;-74
2023/01/13 08:52:23;;;;;;;;;2.25;0.25;;;;;9.66;72.09;101101.94;4997530;28;47447;-73
2023/01/13 08:54:49;;;;;;;;;3.50;1.00;;;;;9.80;72.59;101138.91;5014625;28;46260;-74
2023/01/13 08:57:15;;;;;;;;;4.25;0.75;;;;;9.70;72.24;101130.31;5015026;28;45438;-74
2023/01/13 08:59:42;;;;;;;;;0.00;0.00;;;;;9.74;72.39;101125.75;5015106;28;45410;-73
2023/01/13 09:02:17;;;;;;;;;3.00;1.00;;;;;9.83;71.90;101138.81;5018259;28;45689;-72
2023/01/13 09:04:43;;;;;;;;;1.00;1.00;;;;;9.88;71.66;101134.13;5014522;28;45432;-74
2023/01/13 09:07:08;;;;;;;;;3.75;1.25;;;;;9.80;71.35;101123.72;5014625;28;45431;-74
2023/01/13 09:09:34;;;;;;;;;2.00;0.75;;;;;9.97;71.15;101144.50;5015187;28;45513;-74
2023/01/13 09:14:43;;;;;;;;;1.00;1.00;;;;;9.94;71.54;101141.97;5017017;28;45758;-73
2023/01/13 09:17:09;;;;;;;;;3.25;2.00;;;;;9.93;71.54;101152.72;5022393;28;45407;-75
2023/01/13 09:19:35;;;;;;;;;1.50;1.00;;;;;9.98;71.02;101166.81;5014325;28;45408;-75
2023/01/13 09:22:00;;;;;;;;;1.00;1.00;;;;;9.93;71.30;101161.63;5013757;28;45487;-75
2023/01/13 09:24:26;;;;;;;;;3.00;1.00;;;;;9.98;71.14;101154.28;4996457;28;47108;-73
2023/01/13 09:26:51;;;;;;;;;0.25;0.25;;;;;10.06;70.70;101165.59;5014801;28;45360;-72
2023/01/13 09:29:17;;;;;;;;;0.25;0.25;;;;;10.06;70.45;101159.38;5014208;28;45521;-73
2023/01/13 09:31:43;;;;;;;;;0.25;0.25;;;;;10.06;69.83;101156.69;5003436;28;45539;-73
2023/01/13 09:35:16;;;;;;;;;7.00;1.00;;;;;10.11;70.20;101171.69;5014378;28;45317;-74
2023/01/13 09:37:09;;;;;;;;;1.00;1.00;;;;;10.03;69.83;101146.13;5005320;28;45575;-75
2023/01/13 09:39:35;;;;;;;;;2.00;0.75;;;;;10.20;69.45;101165.13;5013913;28;45570;-72
2023/01/13 09:45:07;;;;;;;;;2.75;0.00;;;;;10.20;69.00;101190.13;4999041;28;45388;-74
2023/01/13 09:47:43;;;;;;;;;5.25;1.50;;;;;10.26;68.79;101180.09;5011040;28;45396;-73
2023/01/13 09:50:24;;;;;;;;;0.00;0.00;;;;;10.34;68.86;101184.25;5016689;28;45329;-72
2023/01/13 09:52:51;;;;;;;;;2.25;1.00;;;;;10.48;68.61;101200.66;5014832;28;45362;-71
2023/01/13 09:55:27;;;;;;;;;6.00;1.00;;;;;10.54;67.58;101208.50;5014304;28;45459;-72
2023/01/13 09:57:52;;;;;;;;;0.00;0.00;;;;;10.54;67.44;101195.09;5014356;28;45493;-73
2023/01/13 10:00:18;;;;;;;;;2.50;1.00;;;;;10.63;66.63;101202.75;5012248;28;45563;-74
2023/01/13 10:02:55;;;;;;;;;3.00;0.25;;;;;10.64;66.50;101206.31;5004595;28;45458;-75
2023/01/13 10:05:35;;;;;;;;;4.00;2.00;;;;;10.74;66.25;101215.75;5013545;28;46086;-74
2023/01/13 10:08:11;;;;;;;;;3.00;0.75;;;;;10.78;65.72;101211.16;5000067;28;45396;-75
2023/01/13 10:10:59;;;;;;;;;3.00;1.50;;;;;10.80;65.61;101218.19;5011029;28;45402;-73
2023/01/13 10:13:30;;;;;;;;;1.00;1.00;;;;;10.85;65.42;101200.13;5013110;28;45574;-71
2023/01/13 10:16:14;;;;;;;;;2.00;2.00;;;;;10.81;65.27;101201.16;5011828;28;45935;-74
2023/01/13 10:19:02;;;;;;;;;0.00;0.00;;;;;10.85;65.76;101200.13;5013188;28;45449;-73
2023/01/13 10:21:52;;;;;;;;;2.00;1.00;;;;;10.89;65.88;101208.88;4982884;28;45530;-74
2023/01/13 10:24:20;;;;;;;;;2.25;1.00;;;;;10.89;65.39;101212.44;5011878;28;45917;-74
2023/01/13 10:26:58;;;;;;;;;2.00;0.00;;;;;10.83;65.54;101230.59;5014071;28;45347;-73
2023/01/13 10:29:26;;;;;;;;;2.75;1.00;;;;;10.68;65.42;101218.66;5006810;28;45468;-73
2023/01/13 10:31:53;;;;;;;;;2.00;0.00;;;;;10.74;65.67;101212.19;5010055;28;45463;-73
2023/01/13 10:34:20;;;;;;;;;3.00;0.00;;;;;10.67;65.52;101219.59;5009276;28;45617;-74
2023/01/13 10:36:57;;;;;;;;;0.00;0.00;;;;;10.72;65.94;101216.75;5017026;28;46090;-73
2023/01/13 10:39:22;;;;;;;;;0.75;0.75;;;;;10.75;65.84;101222.84;5005479;28;45380;-74
2023/01/13 10:41:48;;;;;;;;;0.00;0.00;;;;;10.84;65.88;101227.00;5016495;28;45337;-73
2023/01/13 10:44:17;;;;;;;;;0.00;0.00;;;;;10.75;65.69;101216.63;5009654;28;45261;-72
2023/01/13 10:46:56;;;;;;;;;2.00;0.75;;;;;10.89;65.29;101238.41;5012351;28;46454;-73
2023/01/13 10:49:29;;;;;;;;;0.00;0.00;;;;;10.91;65.52;101224.00;5016413;28;45501;-75
2023/01/13 10:51:55;;;;;;;;;2.25;0.75;;;;;10.99;65.08;101237.97;5015386;28;45842;-73
2023/01/13 10:54:22;;;;;;;;;0.25;0.00;;;;;11.04;65.83;101248.56;5016123;28;45492;-74
2023/01/13 10:56:48;;;;;;;;;1.00;1.00;;;;;11.12;65.93;101253.59;5016804;28;45477;-74
2023/01/13 10:59:28;;;;;;;;;1.25;0.00;;;;;11.21;66.22;101263.97;5019983;28;45393;-73
2023/01/13 11:02:02;;;;;;;;;0.00;0.00;;;;;11.38;65.48;101262.34;5015744;28;45651;-74
2023/01/13 11:04:50;;;;;;;;;2.25;0.00;;;;;11.34;65.67;101286.69;5011361;28;45391;-72
2023/01/13 11:07:25;;;;;;;;;2.00;1.00;;;;;11.46;65.84;101279.97;5006612;28;46227;-74
2023/01/13 11:10:16;;;;;;;;;0.00;0.00;;;;;11.43;65.25;101329.28;5016979;28;45483;-71
2023/01/13 11:12:54;;;;;;;;;1.75;1.50;;;;;11.38;65.44;101285.66;4999235;28;45389;-71
2023/01/13 11:15:30;;;;;;;;;3.75;0.50;;;;;11.47;65.17;101277.22;5016764;28;45582;-73
2023/01/13 11:18:12;;;;;;;;;1.75;1.00;;;;;11.49;65.05;101274.44;5019731;28;45349;-74
2023/01/13 11:20:45;;;;;;;;;3.25;1.50;;;;;11.63;65.04;101269.41;5019661;28;45330;-72
2023/01/13 11:23:21;;;;;;;;;3.50;2.00;;;;;11.79;64.73;101277.72;5020177;28;45371;-78
2023/01/13 11:25:53;;;;;;;;;1.50;1.00;;;;;11.67;63.54;101231.59;5015258;28;45480;-75
2023/01/13 11:28:24;;;;;;;;;2.00;2.00;;;;;12.00;63.13;101287.53;5016552;28;45280;-73
2023/01/13 11:31:04;;;;;;;;;2.00;2.00;;;;;11.92;62.85;101281.59;5015563;28;45460;-73
2023/01/13 11:33:40;;;;;;;;;2.75;1.00;;;;;12.03;63.28;101290.09;5016273;28;45606;-75
2023/01/13 11:36:12;;;;;;;;;1.50;0.75;;;;;11.99;62.26;101285.81;5016383;28;45504;-74
2023/01/13 11:38:52;;;;;;;;;3.00;1.00;;;;;12.08;62.24;101310.44;5016281;28;46853;-74
2023/01/13 11:41:30;;;;;;;;;2.25;2.25;;;;;12.21;61.45;101291.97;5015129;28;45388;-76
2023/01/13 11:44:36;;;;;;;;;1.75;1.75;;;;;12.54;61.38;101300.34;5009997;28;45491;-76
2023/01/13 11:47:02;;;;;;;;;1.00;1.00;;;;;12.45;59.99;101317.78;4996290;28;45264;-75
2023/01/13 11:49:32;;;;;;;;;2.00;2.00;;;;;12.16;59.87;101263.56;5015786;28;46166;-74
2023/01/13 11:52:20;;;;;;;;;1.75;1.50;;;;;12.32;59.34;101313.91;4997965;28;45357;-75
2023/01/13 11:55:02;;;;;;;;;7.00;2.75;;;;;12.23;59.30;101308.94;5015953;28;45342;-74
2023/01/13 11:57:33;;;;;;;;;3.50;2.50;;;;;12.04;58.94;101324.09;5015655;28;45345;-75
2023/01/13 12:00:14;;;;;;;;;1.75;1.00;;;;;11.98;59.04;101319.00;5016060;28;45438;-75
2023/01/13 12:02:48;;;;;;;;;2.50;1.25;;;;;12.10;59.05;101305.00;5016388;28;45881;-75
2023/01/13 12:05:36;;;;;;;;;4.00;1.75;;;;;12.15;58.51;101315.56;5015995;28;45254;-75
2023/01/13 12:08:11;;;;;;;;;1.50;1.00;;;;;12.23;58.55;101314.31;5015440;28;45309;-76
2023/01/13 12:10:57;;;;;;;;;2.75;2.00;;;;;12.22;58.68;101307.19;5016095;28;46743;-76
2023/01/13 12:13:35;;;;;;;;;1.50;1.50;;;;;12.25;57.02;101295.41;5016403;28;45289;-75
2023/01/13 12:16:27;;;;;;;;;5.75;1.50;;;;;12.12;57.00;101270.88;5015784;28;45478;-75
2023/01/13 12:19:03;;;;;;;;;6.00;1.00;;;;;12.09;57.33;101305.94;5015644;28;45347;-75
2023/01/13 12:21:35;;;;;;;;;0.75;0.00;;;;;12.05;57.39;101289.09;4997520;28;47233;-76
2023/01/13 12:24:13;;;;;;;;;3.25;1.00;;;;;12.21;57.17;101299.16;5015593;28;45519;-76
2023/01/13 12:26:46;;;;;;;;;1.75;0.75;;;;;12.13;56.30;101289.63;5015956;28;45452;-75
2023/01/13 12:29:14;;;;;;;;;1.25;0.25;;;;;12.19;56.24;101306.41;5015249;28;45290;-73
2023/01/13 12:31:42;;;;;;;;;3.50;0.25;;;;;12.24;56.75;101309.81;5015375;28;45491;-76
2023/01/13 12:34:32;;;;;;;;;2.00;1.00;;;;;12.26;56.98;101300.69;5014939;28;45477;-75
2023/01/13 12:37:26;;;;;;;;;5.00;3.00;;;;;12.32;56.87;101313.03;5016104;28;45452;-74
2023/01/13 12:40:23;;;;;;;;;1.75;1.75;;;;;12.45;55.93;101315.09;5022900;28;45227;-75
2023/01/13 12:45:50;;;;;;;;;3.75;2.00;;;;;12.47;56.22;101321.28;5003201;28;45543;-74
2023/01/13 12:49:03;;;;;;;;;1.00;1.00;;;;;12.52;55.55;101327.31;5015016;28;46079;-75
2023/01/13 12:51:55;;;;;;;;;4.25;2.00;;;;;12.46;55.33;101334.78;4961008;28;46193;-74
2023/01/13 12:54:36;;;;;;;;;1.00;1.00;;;;;12.41;55.43;101347.56;5017234;28;45667;-74
2023/01/13 12:57:13;;;;;;;;;1.50;1.50;;;;;12.41;56.04;101326.06;4995277;28;46269;-75
2023/01/13 12:59:39;;;;;;;;;3.00;1.25;;;;;12.34;55.62;101309.31;5020981;28;45518;-73
2023/01/13 13:02:17;;;;;;;;;1.00;1.00;;;;;12.46;55.60;101332.09;5015758;28;45608;-73
2023/01/13 13:05:21;;;;;;;;;3.25;1.25;;;;;12.25;56.17;101315.09;5016057;28;46407;-74
2023/01/13 13:08:13;;;;;;;;;2.00;2.00;;;;;12.31;55.78;101330.97;4975612;28;45543;-73
2023/01/13 13:10:59;;;;;;;;;2.00;1.00;;;;;12.24;56.41;101293.66;4998888;28;45367;-73
2023/01/13 13:14:21;;;;;;;;;2.00;1.00;;;;;12.30;56.66;101328.34;5001371;28;45541;-73
2023/01/13 13:16:51;;;;;;;;;0.75;0.75;;;;;12.28;56.49;101306.03;4958513;28;46871;-74
2023/01/13 13:19:16;;;;;;;;;0.00;0.00;;;;;12.45;56.76;101319.59;4990394;28;45391;-74
2023/01/13 13:22:21;;;;;;;;;5.75;2.25;;;;;12.35;56.34;101320.94;5016533;28;45439;-74
2023/01/13 13:24:50;;;;;;;;;0.00;0.00;;;;;12.24;56.98;101331.31;5016201;28;45407;-75
2023/01/13 13:27:56;;;;;;;;;2.00;0.75;;;;;12.27;55.98;101341.91;5019746;28;45477;-75
2023/01/13 13:30:33;;;;;;;;;2.00;0.25;;;;;12.30;56.54;101339.09;5015554;28;45202;-73
2023/01/13 13:33:50;;;;;;;;;3.00;1.75;;;;;12.31;56.73;101330.09;4996144;28;45364;-72
2023/01/13 13:36:37;;;;;;;;;2.00;0.75;;;;;12.39;56.27;101346.75;4984655;28;45360;-75
2023/01/13 13:47:50;;;;;;;;;0.50;0.00;;;;;12.38;55.11;101350.38;4986862;28;45392;-75
2023/01/13 13:50:19;;;;;;;;;5.00;1.00;;;;;12.44;55.26;101355.50;4976498;28;46210;-73
2023/01/13 13:53:18;;;;;;;;;2.00;1.00;;;;;12.42;55.19;101360.06;4994824;28;45330;-72
2023/01/13 13:56:22;;;;;;;;;3.75;1.25;;;;;12.39;54.95;101357.53;4984479;28;45373;-74
2023/01/13 13:58:49;;;;;;;;;2.00;1.75;;;;;12.36;55.65;101353.13;4994527;28;45444;-73
2023/01/13 14:01:23;;;;;;;;;3.00;1.00;;;;;12.49;55.76;101367.81;4996364;28;46185;-73
2023/01/13 14:04:03;;;;;;;;;0.50;0.50;;;;;12.35;55.39;101370.22;4978857;28;45362;-73
2023/01/13 14:06:31;;;;;;;;;3.00;0.75;;;;;12.42;55.37;101368.13;4997363;28;45330;-74
2023/01/13 14:08:57;;;;;;;;;0.75;0.75;;;;;12.32;55.06;101369.50;4994421;28;45499;-76
2023/01/13 14:11:28;;;;;;;;;2.50;1.50;;;;;12.37;55.15;101379.09;4994993;28;45309;-73
2023/01/13 14:14:12;;;;;;;;;1.25;1.00;;;;;12.35;55.03;101386.34;4994475;28;45376;-74
2023/01/13 14:16:39;;;;;;;;;7.50;1.00;;;;;12.42;55.32;101379.75;4994809;28;45315;-73
2023/01/13 14:19:21;;;;;;;;;1.00;1.00;;;;;12.47;55.30;101384.94;4975892;28;46007;-74
2023/01/13 14:21:47;;;;;;;;;3.25;1.00;;;;;12.39;54.33;101377.22;4992532;28;46694;-75
2023/01/13 14:24:15;;;;;;;;;0.50;0.50;;;;;12.39;54.29;101403.22;4993695;28;45343;-74
2023/01/13 14:26:40;;;;;;;;;2.25;1.00;;;;;12.36;54.54;101398.84;4993950;28;45492;-75
2023/01/13 14:29:51;;;;;;;;;1.00;0.00;;;;;12.27;54.84;101410.00;4993557;28;45650;-73
2023/01/13 14:32:19;;;;;;;;;3.75;1.00;;;;;12.13;55.19;101417.78;5005090;28;46092;-74
2023/01/13 14:34:45;;;;;;;;;2.00;1.00;;;;;12.05;55.03;101401.97;5003332;28;45373;-73
2023/01/13 14:37:44;;;;;;;;;2.50;0.75;;;;;12.12;55.49;101405.28;5014119;28;45330;-74
2023/01/13 14:40:32;;;;;;;;;3.00;1.50;;;;;12.25;55.02;101435.22;4990276;28;46210;-73
2023/01/13 14:43:01;;;;;;;;;1.00;0.00;;;;;12.13;54.57;101424.03;5013277;28;45420;-76
2023/01/13 14:45:27;;;;;;;;;0.75;0.75;;;;;12.06;54.28;101427.91;5000318;28;45518;-74
2023/01/13 14:47:53;;;;;;;;;1.25;1.00;;;;;12.06;54.58;101435.97;5013887;28;45252;-74
2023/01/13 14:50:27;;;;;;;;;1.00;1.00;;;;;12.06;54.58;101440.47;5008376;28;45537;-73
2023/01/13 14:52:55;;;;;;;;;2.75;1.00;;;;;12.07;54.79;101440.41;5013175;28;45996;-74
2023/01/13 14:55:36;;;;;;;;;0.25;0.25;;;;;12.15;54.40;101458.03;5013243;28;45466;-75
2023/01/13 14:58:20;;;;;;;;;1.75;1.75;;;;;12.02;55.68;101463.00;4995916;28;45246;-74
2023/01/13 15:00:45;;;;;;;;;1.00;1.00;;;;;11.91;56.40;101457.22;5016496;28;45856;-72
2023/01/13 15:03:14;;;;;;;;;2.25;0.75;;;;;11.79;56.86;101446.94;5012735;28;45589;-74
2023/01/13 15:05:48;;;;;;;;;1.00;1.00;;;;;11.66;56.75;101438.44;5013349;28;45372;-74
2023/01/13 15:08:14;;;;;;;;;1.00;1.00;;;;;11.77;57.21;101484.63;5013296;28;45482;-74
2023/01/13 15:10:51;;;;;;;;;1.00;1.00;;;;;11.69;57.30;101457.16;4995860;28;45577;-72
2023/01/13 15:13:44;;;;;;;;;0.00;0.00;;;;;11.75;56.99;101475.72;4995460;28;45435;-73
2023/01/13 15:16:17;;;;;;;;;0.00;0.00;;;;;11.65;55.96;101477.88;5012250;28;45421;-74
2023/01/13 15:18:42;;;;;;;;;0.00;0.00;;;;;11.58;56.23;101497.84;5004706;28;45601;-73
2023/01/13 15:21:08;;;;;;;;;0.00;0.00;;;;;11.56;56.79;101488.09;5013679;28;45404;-72
2023/01/13 15:23:34;;;;;;;;;0.00;0.00;;;;;11.55;56.91;101500.66;5016980;28;46150;-74
2023/01/13 15:26:00;;;;;;;;;0.00;0.00;;;;;11.53;56.71;101507.88;5016463;28;45528;-74
2023/01/13 15:28:27;;;;;;;;;0.00;0.00;;;;;11.45;56.64;101501.06;5017246;28;45343;-72
2023/01/13 15:30:54;;;;;;;;;1.00;1.00;;;;;11.44;57.70;101516.28;5011792;28;45270;-72
2023/01/13 15:33:21;;;;;;;;;0.00;0.00;;;;;11.37;57.69;101520.13;4992799;28;47528;-73
2023/01/13 15:35:52;;;;;;;;;1.00;1.00;;;;;11.25;58.46;101523.25;5017788;28;45353;-74
2023/01/13 15:38:20;;;;;;;;;1.00;1.00;;;;;11.23;58.57;101525.97;5016403;28;45417;-73
2023/01/13 15:40:47;;;;;;;;;2.00;0.50;;;;;11.17;58.52;101533.38;5016543;28;45375;-74
2023/01/13 15:48:44;;;;;;;;;2.75;0.25;;;;;11.32;59.21;101535.50;5016645;28;45325;-73
2023/01/13 15:51:10;;;;;;;;;0.75;0.75;;;;;11.30;59.48;101540.97;5016397;28;45444;-75
2023/01/13 15:53:36;;;;;;;;;2.00;0.00;;;;;11.25;59.75;101523.25;5007046;28;45711;-76
2023/01/13 15:56:08;;;;;;;;;2.00;0.25;;;;;11.30;59.63;101527.53;4999058;28;46195;-77
2023/01/13 15:58:33;;;;;;;;;3.00;0.50;;;;;11.34;59.75;101531.84;4998916;28;45381;-79
2023/01/13 16:00:59;;;;;;;;;0.75;0.75;;;;;11.14;59.81;101496.81;5018375;28;45344;-76
2023/01/13 16:03:24;;;;;;;;;1.00;1.00;;;;;11.33;60.35;101545.31;5016234;28;45367;-76
2023/01/13 16:05:49;;;;;;;;;2.50;1.25;;;;;11.26;60.21;101533.94;4998799;28;45403;-76
2023/01/13 16:08:20;;;;;;;;;1.00;1.00;;;;;11.27;60.24;101538.38;5016623;28;45636;-76
2023/01/13 16:10:47;;;;;;;;;1.25;0.25;;;;;11.21;60.50;101537.72;5016550;28;45300;-77
2023/01/13 16:13:15;;;;;;;;;2.75;1.00;;;;;11.24;60.70;101541.16;5016384;28;46321;-76
2023/01/13 16:15:48;;;;;;;;;2.00;1.00;;;;;11.19;60.93;101548.50;5016255;28;45295;-76
2023/01/13 16:18:19;;;;;;;;;1.25;1.25;;;;;11.20;61.08;101550.28;5016604;28;45381;-76
2023/01/13 16:20:45;;;;;;;;;2.75;2.00;;;;;11.13;61.15;101564.84;5016088;28;45312;-75
2023/01/13 16:23:11;;;;;;;;;4.00;2.50;;;;;11.10;61.41;101556.00;5016243;28;46254;-75
2023/01/13 16:25:38;;;;;;;;;8.00;2.25;;;;;10.97;60.85;101542.16;5015722;28;45524;-80
2023/01/13 16:28:03;;;;;;;;;1.50;1.00;;;;;10.96;60.05;101548.47;4998659;28;45463;-75
2023/01/13 16:30:33;;;;;;;;;1.25;1.00;;;;;10.94;59.18;101564.59;5015857;28;45460;-75
2023/01/13 16:32:59;;;;;;;;;5.50;2.00;;;;;10.75;60.27;101543.81;5013640;28;48108;-72
2023/01/13 16:35:25;;;;;;;;;3.00;1.00;;;;;10.87;59.36;101586.31;5008928;28;45433;-72
2023/01/13 16:37:52;;;;;;;;;1.00;1.00;;;;;10.85;59.42;101575.63;5006695;28;45267;-78
2023/01/13 16:40:28;;;;;;;;;1.00;1.00;;;;;10.88;59.62;101572.88;4992346;28;47143;-78
2023/01/13 16:42:55;;;;;;;;;3.75;0.75;;;;;10.95;59.01;101587.81;4998657;28;47782;-74
2023/01/13 16:45:21;;;;;;;;;3.00;1.25;;;;;10.98;59.18;101593.06;4997249;28;45998;-73
2023/01/13 16:47:47;;;;;;;;;1.00;1.00;;;;;11.00;59.08;101601.06;5015934;28;45368;-75
2023/01/13 16:50:40;;;;;;;;;2.50;2.00;;;;;10.95;58.96;101603.91;5004003;28;45410;-75
2023/01/13 16:53:10;;;;;;;;;3.00;2.00;;;;;10.89;58.63;101617.50;5015149;28;46077;-76
2023/01/13 16:55:37;;;;;;;;;1.00;0.00;;;;;10.73;59.11;101583.19;5015351;28;45387;-78
2023/01/13 16:58:02;;;;;;;;;2.50;1.00;;;;;10.80;59.28;101600.88;5002601;28;45568;-76
2023/01/13 17:00:28;;;;;;;;;1.00;1.00;;;;;10.80;59.49;101612.44;4993639;28;46897;-72
2023/01/13 17:02:54;;;;;;;;;1.50;0.25;;;;;10.67;59.90;101615.59;5014869;28;46167;-72
2023/01/13 17:05:19;;;;;;;;;3.50;1.75;;;;;10.66;60.19;101630.81;5016680;28;45381;-74
2023/01/13 17:07:46;;;;;;;;;2.50;0.00;;;;;10.59;60.98;101630.13;4994693;28;45479;-71
2023/01/13 17:10:19;;;;;;;;;1.00;0.75;;;;;10.57;61.26;101625.75;5015710;28;45333;-74
2023/01/13 17:12:44;;;;;;;;;2.00;0.25;;;;;10.61;61.04;101635.44;5010761;28;46040;-75
2023/01/13 17:15:11;;;;;;;;;1.00;1.00;;;;;10.54;61.39;101623.16;5015800;28;45432;-77
2023/01/13 17:17:37;;;;;;;;;1.75;1.75;;;;;10.63;61.39;101630.94;5014305;28;45531;-74
2023/01/13 17:20:03;;;;;;;;;2.50;1.75;;;;;10.66;61.44;101630.81;5014878;28;45983;-72
2023/01/13 17:22:29;;;;;;;;;1.25;1.25;;;;;10.64;61.50;101629.97;5015024;28;46302;-74
2023/01/13 17:24:55;;;;;;;;;3.75;2.50;;;;;10.68;61.21;101625.41;5013757;28;45403;-76
2023/01/13 17:27:21;;;;;;;;;3.00;1.00;;;;;10.67;61.37;101631.69;5015163;28;45459;-75
2023/01/13 17:29:47;;;;;;;;;4.50;2.50;;;;;10.64;61.76;101638.00;5013638;28;45474;-74
2023/01/13 17:32:17;;;;;;;;;1.75;1.00;;;;;10.66;61.96;101637.97;5014661;28;46071;-75
2023/01/13 17:34:43;;;;;;;;;3.75;2.00;;;;;10.56;62.02;101622.19;5014980;28;45183;-76
2023/01/13 17:37:12;;;;;;;;;2.00;2.00;;;;;10.64;62.13;101643.38;5015016;28;45576;-75
2023/01/13 17:39:38;;;;;;;;;2.00;1.50;;;;;10.40;62.68;101642.34;5002575;28;45588;-77
2023/01/13 17:42:03;;;;;;;;;2.75;1.00;;;;;10.48;62.76;101643.00;5007639;28;45435;-75
2023/01/13 17:44:29;;;;;;;;;2.00;1.00;;;;;10.37;63.17;101634.44;4995542;28;46013;-78
2023/01/13 17:46:54;;;;;;;;;3.00;2.50;;;;;10.47;63.25;101643.91;5015151;28;45352;-76
2023/01/13 17:49:20;;;;;;;;;3.50;1.75;;;;;10.50;63.47;101654.56;4996704;28;46075;-75
2023/01/13 17:51:47;;;;;;;;;4.00;1.00;;;;;10.50;63.81;101664.41;4996866;28;48223;-77